Time;durP1;ratioP1;P1;durP2;ratioP2;P2;SDS_P1;SDS_P2;PMS_P1;PMS_P2;Temp;Humidity;BMP_temperature;BMP_pressure;BME280_temperature;BME280_humidity;BME280_pressure;Samples;Min_cycle;Max_cycle;Signal;HPM_P1;HPM_P2
2021/09/04 00:02:11;;;;;;;7.00;1.80;;;;;;;;;;5038907;28;20091;-45
2021/09/04 00:04:39;;;;;;;9.68;1.88;;;;;;;;;;5038437;28;20017;-47
2021/09/04 00:07:06;;;;;;;6.03;1.80;;;;;;;;;;5049795;28;20071;-46
2021/09/04 00:09:34;;;;;;;7.07;2.05;;;;;;;;;;5036373;28;20033;-48
2021/09/04 00:12:01;;;;;;;5.90;2.05;;;;;;;;;;5035085;28;20030;-44
2021/09/04 00:14:29;;;;;;;8.38;2.00;;;;;;;;;;5039307;28;20021;-43
2021/09/04 00:16:56;;;;;;;7.50;2.22;;;;;;;;;;5031692;28;20436;-44
2021/09/04 00:19:23;;;;;;;12.95;2.13;;;;;;;;;;5019123;28;20432;-49
2021/09/04 00:21:51;;;;;;;9.85;2.20;;;;;;;;;;5036131;28;20022;-47
2021/09/04 00:24:18;;;;;;;8.07;1.83;;;;;;;;;;5036967;28;20064;-45
2021/09/04 00:26:45;;;;;;;9.85;2.72;;;;;;;;;;5033092;28;20021;-47
2021/09/04 00:29:12;;;;;;;11.55;2.40;;;;;;;;;;5038041;28;20040;-45
2021/09/04 00:31:39;;;;;;;8.70;2.72;;;;;;;;;;5044379;28;20020;-46
2021/09/04 00:34:06;;;;;;;11.70;2.83;;;;;;;;;;5040505;28;20030;-46
2021/09/04 00:36:33;;;;;;;12.57;2.78;;;;;;;;;;5036332;28;20155;-45
2021/09/04 00:39:02;;;;;;;14.82;3.38;;;;;;;;;;5037073;28;20115;-48
2021/09/04 00:41:34;;;;;;;19.08;4.25;;;;;;;;;;5034295;28;20096;-44
2021/09/04 00:44:02;;;;;;;17.40;3.77;;;;;;;;;;5044515;28;20029;-44
2021/09/04 00:46:29;;;;;;;16.13;4.13;;;;;;;;;;5041110;28;20253;-45
2021/09/04 00:48:56;;;;;;;44.85;11.52;;;;;;;;;;5043242;28;20353;-46
2021/09/04 00:51:23;;;;;;;57.03;14.60;;;;;;;;;;5046149;28;20531;-49
2021/09/04 00:53:52;;;;;;;64.90;14.98;;;;;;;;;;5042924;28;20022;-46
2021/09/04 00:56:19;;;;;;;36.40;10.15;;;;;;;;;;5034662;28;20504;-43
2021/09/04 00:58:46;;;;;;;31.73;8.70;;;;;;;;;;5034244;28;20029;-44
2021/09/04 01:01:13;;;;;;;37.40;9.20;;;;;;;;;;5036834;28;20079;-44
2021/09/04 01:03:41;;;;;;;31.70;7.63;;;;;;;;;;5060783;28;20087;-44
2021/09/04 01:06:08;;;;;;;28.67;8.13;;;;;;;;;;5046022;28;20130;-45
2021/09/04 01:08:35;;;;;;;31.70;8.25;;;;;;;;;;5046877;28;20017;-46
2021/09/04 01:11:02;;;;;;;29.33;8.77;;;;;;;;;;5048143;28;20018;-45
2021/09/04 01:13:32;;;;;;;35.92;8.95;;;;;;;;;;5049766;28;20461;-43
2021/09/04 01:16:02;;;;;;;31.67;9.38;;;;;;;;;;5044694;28;20041;-44
2021/09/04 01:18:29;;;;;;;24.98;8.43;;;;;;;;;;5042736;28;20021;-45
2021/09/04 01:20:56;;;;;;;29.10;8.88;;;;;;;;;;5032590;28;20036;-45
2021/09/04 01:23:23;;;;;;;24.25;9.43;;;;;;;;;;5032724;28;20031;-44
2021/09/04 01:25:53;;;;;;;32.55;9.05;;;;;;;;;;5038227;28;20025;-46
2021/09/04 01:28:20;;;;;;;20.63;8.13;;;;;;;;;;5034002;28;20067;-44
2021/09/04 01:30:48;;;;;;;27.92;9.35;;;;;;;;;;5040110;28;20064;-46
2021/09/04 01:33:15;;;;;;;29.25;8.60;;;;;;;;;;5036146;28;20017;-46
2021/09/04 01:35:42;;;;;;;30.40;9.32;;;;;;;;;;5047953;28;20040;-48
2021/09/04 01:38:09;;;;;;;27.42;9.23;;;;;;;;;;5036094;28;20026;-45
2021/09/04 01:40:36;;;;;;;31.00;9.20;;;;;;;;;;5031963;28;20473;-47
2021/09/04 01:43:03;;;;;;;26.88;8.32;;;;;;;;;;5050035;28;20079;-45
2021/09/04 01:45:30;;;;;;;30.02;8.13;;;;;;;;;;5038256;28;20087;-47
2021/09/04 01:47:57;;;;;;;28.42;8.07;;;;;;;;;;5032960;28;20044;-47
2021/09/04 01:50:25;;;;;;;29.63;9.43;;;;;;;;;;5040216;28;20469;-46
2021/09/04 01:52:52;;;;;;;23.08;8.07;;;;;;;;;;5051554;28;20039;-43
2021/09/04 01:55:20;;;;;;;30.10;7.55;;;;;;;;;;5044733;28;20155;-49
2021/09/04 01:57:51;;;;;;;24.50;7.90;;;;;;;;;;5035734;28;20025;-43
2021/09/04 02:00:18;;;;;;;31.48;7.80;;;;;;;;;;5035609;28;20036;-43
2021/09/04 02:02:46;;;;;;;22.05;7.35;;;;;;;;;;5034425;28;20049;-41
2021/09/04 02:05:13;;;;;;;22.67;7.32;;;;;;;;;;5035297;28;20030;-44
2021/09/04 02:07:41;;;;;;;25.17;7.85;;;;;;;;;;5041588;28;20060;-49
2021/09/04 02:10:09;;;;;;;24.15;7.15;;;;;;;;;;5049772;28;20033;-46
2021/09/04 02:12:38;;;;;;;26.60;6.85;;;;;;;;;;5045477;28;20030;-42
2021/09/04 02:15:07;;;;;;;29.77;7.15;;;;;;;;;;5039103;28;20030;-43
2021/09/04 02:17:36;;;;;;;19.65;6.35;;;;;;;;;;5033791;28;20031;-46
2021/09/04 02:20:04;;;;;;;19.05;6.28;;;;;;;;;;5042574;28;20433;-47
2021/09/04 02:22:32;;;;;;;19.33;6.32;;;;;;;;;;5055836;28;20070;-46
2021/09/04 02:25:01;;;;;;;23.02;6.28;;;;;;;;;;5035611;28;20104;-45
2021/09/04 02:27:29;;;;;;;19.02;5.57;;;;;;;;;;5038756;28;20377;-46
2021/09/04 02:29:57;;;;;;;19.48;6.13;;;;;;;;;;5034687;28;20025;-43
2021/09/04 02:32:25;;;;;;;16.75;5.85;;;;;;;;;;5036129;28;20376;-45
2021/09/04 02:34:53;;;;;;;20.98;6.63;;;;;;;;;;5034955;28;20030;-44
2021/09/04 02:37:21;;;;;;;13.10;5.20;;;;;;;;;;5036398;28;20037;-46
2021/09/04 02:39:49;;;;;;;19.70;5.82;;;;;;;;;;5037950;28;20388;-46
2021/09/04 02:42:17;;;;;;;17.77;5.85;;;;;;;;;;5046731;28;20025;-44
2021/09/04 02:44:45;;;;;;;14.45;5.18;;;;;;;;;;5037851;28;20020;-44
2021/09/04 02:47:13;;;;;;;14.30;5.38;;;;;;;;;;5042699;28;20025;-45
2021/09/04 02:49:40;;;;;;;18.88;5.68;;;;;;;;;;5045972;28;20036;-49
2021/09/04 02:52:07;;;;;;;17.38;5.07;;;;;;;;;;5039448;28;20033;-43
2021/09/04 02:54:34;;;;;;;15.98;4.72;;;;;;;;;;5045813;28;20017;-42
2021/09/04 02:57:01;;;;;;;17.88;5.10;;;;;;;;;;5035142;28;20037;-50
2021/09/04 02:59:28;;;;;;;13.98;4.93;;;;;;;;;;5040268;28;20035;-41
2021/09/04 03:01:56;;;;;;;12.15;4.57;;;;;;;;;;5047062;28;20500;-42
2021/09/04 03:04:23;;;;;;;15.02;4.60;;;;;;;;;;5033929;28;20021;-43
2021/09/04 03:06:51;;;;;;;12.05;4.20;;;;;;;;;;5048586;28;20009;-44
2021/09/04 03:09:18;;;;;;;15.73;4.60;;;;;;;;;;5037270;28;20029;-42
2021/09/04 03:11:46;;;;;;;10.35;4.20;;;;;;;;;;5053467;28;20017;-44
2021/09/04 03:14:13;;;;;;;12.60;4.47;;;;;;;;;;5055468;28;20040;-48
2021/09/04 03:16:40;;;;;;;14.50;4.40;;;;;;;;;;5052270;28;20091;-44
2021/09/04 03:19:07;;;;;;;10.18;4.45;;;;;;;;;;5051540;28;20039;-49
2021/09/04 03:21:34;;;;;;;17.05;4.60;;;;;;;;;;5052632;28;20127;-44
2021/09/04 03:24:01;;;;;;;14.82;4.55;;;;;;;;;;5051589;28;20017;-46
2021/09/04 03:26:28;;;;;;;9.65;4.10;;;;;;;;;;5050872;28;20384;-45
2021/09/04 03:28:55;;;;;;;7.22;3.70;;;;;;;;;;5051737;28;20480;-44
2021/09/04 03:31:22;;;;;;;13.73;3.75;;;;;;;;;;5052566;28;20017;-46
2021/09/04 03:33:49;;;;;;;11.73;3.80;;;;;;;;;;5053162;28;20055;-44
2021/09/04 03:36:16;;;;;;;8.00;3.47;;;;;;;;;;5052235;28;20033;-44
2021/09/04 03:38:43;;;;;;;11.02;3.33;;;;;;;;;;5052869;28;20104;-44
2021/09/04 03:41:10;;;;;;;9.02;3.65;;;;;;;;;;5052598;28;20472;-46
2021/09/04 03:43:37;;;;;;;10.10;3.50;;;;;;;;;;5053136;28;20048;-43
2021/09/04 03:46:04;;;;;;;8.65;3.33;;;;;;;;;;5052366;28;20428;-44
2021/09/04 03:48:31;;;;;;;6.68;2.90;;;;;;;;;;5052540;28;20566;-47
2021/09/04 03:50:58;;;;;;;8.68;3.33;;;;;;;;;;5052484;28;20032;-44
2021/09/04 03:53:25;;;;;;;7.28;3.42;;;;;;;;;;5052610;28;20013;-44
2021/09/04 03:55:52;;;;;;;8.85;3.13;;;;;;;;;;5051913;28;20380;-46
2021/09/04 03:58:19;;;;;;;13.10;3.53;;;;;;;;;;5052276;28;20029;-46
2021/09/04 04:00:46;;;;;;;9.55;3.38;;;;;;;;;;5052145;28;20480;-44
2021/09/04 04:03:13;;;;;;;7.95;3.10;;;;;;;;;;5052304;28;20044;-44
2021/09/04 04:05:41;;;;;;;9.45;3.00;;;;;;;;;;5052477;28;20450;-44
2021/09/04 04:08:08;;;;;;;10.45;3.45;;;;;;;;;;5051959;28;20479;-44
2021/09/04 04:10:35;;;;;;;7.35;2.65;;;;;;;;;;5052294;28;20032;-44
2021/09/04 04:13:02;;;;;;;8.15;2.92;;;;;;;;;;5052091;28;20109;-46
2021/09/04 04:15:29;;;;;;;7.47;2.75;;;;;;;;;;5052209;28;20021;-49
2021/09/04 04:17:56;;;;;;;7.32;2.80;;;;;;;;;;5051623;28;20025;-48
2021/09/04 04:20:23;;;;;;;5.65;2.88;;;;;;;;;;5052360;28;20125;-48
2021/09/04 04:22:50;;;;;;;8.20;2.85;;;;;;;;;;5051592;28;20534;-48
2021/09/04 04:25:17;;;;;;;5.60;2.65;;;;;;;;;;5051868;28;20095;-49
2021/09/04 04:27:44;;;;;;;11.20;2.70;;;;;;;;;;5051084;28;20422;-48
2021/09/04 04:30:11;;;;;;;6.53;2.97;;;;;;;;;;5051790;28;20108;-45
2021/09/04 04:32:38;;;;;;;8.35;2.78;;;;;;;;;;5050993;28;20036;-52
2021/09/04 04:35:05;;;;;;;5.88;2.60;;;;;;;;;;5052097;28;20032;-45
2021/09/04 04:37:32;;;;;;;5.82;2.63;;;;;;;;;;5051732;28;20040;-48
2021/09/04 04:39:59;;;;;;;7.18;2.95;;;;;;;;;;5051140;28;20017;-48
2021/09/04 04:42:26;;;;;;;6.47;2.50;;;;;;;;;;5052023;28;20534;-50
2021/09/04 04:44:53;;;;;;;7.78;2.47;;;;;;;;;;5051154;28;20032;-47
2021/09/04 04:47:20;;;;;;;5.57;2.60;;;;;;;;;;5051492;28;20108;-48
2021/09/04 04:49:47;;;;;;;7.22;2.67;;;;;;;;;;5050873;28;20017;-46
2021/09/04 04:52:14;;;;;;;5.70;2.80;;;;;;;;;;5051677;28;20032;-47
2021/09/04 04:54:41;;;;;;;6.15;2.80;;;;;;;;;;5050842;28;20021;-45
2021/09/04 04:57:08;;;;;;;7.20;2.95;;;;;;;;;;5051472;28;20049;-45
2021/09/04 04:59:35;;;;;;;5.80;2.90;;;;;;;;;;5051029;28;20021;-52
2021/09/04 05:02:02;;;;;;;5.55;2.60;;;;;;;;;;5050999;28;20048;-52
2021/09/04 05:04:29;;;;;;;5.50;2.25;;;;;;;;;;5051439;28;20025;-46
2021/09/04 05:06:56;;;;;;;5.47;2.65;;;;;;;;;;5051057;28;20162;-45
2021/09/04 05:09:23;;;;;;;5.38;2.17;;;;;;;;;;5051220;28;20032;-44
2021/09/04 05:11:50;;;;;;;4.75;2.50;;;;;;;;;;5051288;28;20053;-48
2021/09/04 05:14:17;;;;;;;4.55;2.30;;;;;;;;;;5051331;28;20032;-49
2021/09/04 05:16:44;;;;;;;7.25;2.60;;;;;;;;;;5031253;28;20073;-50
2021/09/04 05:19:11;;;;;;;4.50;2.10;;;;;;;;;;5026223;28;20405;-45
2021/09/04 05:21:38;;;;;;;4.82;2.30;;;;;;;;;;5030291;28;20017;-49
2021/09/04 05:24:05;;;;;;;5.47;2.55;;;;;;;;;;5055677;28;20021;-44
2021/09/04 05:26:32;;;;;;;3.42;2.00;;;;;;;;;;5051056;28;20029;-45
2021/09/04 05:29:00;;;;;;;3.58;2.28;;;;;;;;;;5050990;28;20021;-46
2021/09/04 05:31:27;;;;;;;4.90;2.17;;;;;;;;;;5050169;28;20078;-49
2021/09/04 05:33:54;;;;;;;4.45;2.25;;;;;;;;;;5051142;28;20025;-50
2021/09/04 05:36:21;;;;;;;5.90;2.58;;;;;;;;;;5050927;28;20037;-49
2021/09/04 05:38:48;;;;;;;5.22;2.67;;;;;;;;;;5056784;28;20056;-45
2021/09/04 05:41:15;;;;;;;5.57;2.50;;;;;;;;;;5057680;28;20029;-49
2021/09/04 05:43:42;;;;;;;7.85;2.50;;;;;;;;;;5057153;28;20025;-45
2021/09/04 05:46:09;;;;;;;4.05;1.83;;;;;;;;;;5057604;28;20059;-47
2021/09/04 05:48:36;;;;;;;4.05;2.17;;;;;;;;;;5057242;28;20025;-44
2021/09/04 05:51:03;;;;;;;4.30;2.22;;;;;;;;;;5056909;28;20031;-48
2021/09/04 05:53:30;;;;;;;5.13;2.00;;;;;;;;;;5057003;28;20025;-50
2021/09/04 05:55:57;;;;;;;3.72;1.90;;;;;;;;;;5057501;28;20033;-47
2021/09/04 05:58:24;;;;;;;5.72;2.30;;;;;;;;;;5056984;28;20453;-50
2021/09/04 06:00:52;;;;;;;4.20;2.17;;;;;;;;;;5057201;28;20039;-46
2021/09/04 06:03:19;;;;;;;5.50;2.13;;;;;;;;;;5057052;28;20188;-46
2021/09/04 06:05:46;;;;;;;4.43;2.03;;;;;;;;;;5057592;28;20067;-48
2021/09/04 06:08:13;;;;;;;4.30;2.50;;;;;;;;;;5057172;28;20549;-44
2021/09/04 06:10:40;;;;;;;5.20;2.15;;;;;;;;;;5057234;28;20021;-50
2021/09/04 06:13:07;;;;;;;6.03;2.25;;;;;;;;;;5057340;28;20029;-45
2021/09/04 06:15:34;;;;;;;3.55;2.20;;;;;;;;;;5056955;28;20036;-49
2021/09/04 06:18:01;;;;;;;4.20;2.30;;;;;;;;;;5057359;28;20072;-47
2021/09/04 06:20:28;;;;;;;5.53;2.47;;;;;;;;;;5056811;28;20537;-47
2021/09/04 06:22:55;;;;;;;3.22;1.88;;;;;;;;;;5057420;28;20119;-50
2021/09/04 06:25:22;;;;;;;3.45;2.00;;;;;;;;;;5056977;28;20410;-48
2021/09/04 06:27:49;;;;;;;3.83;1.95;;;;;;;;;;5057251;28;20021;-44
2021/09/04 06:30:16;;;;;;;3.47;2.20;;;;;;;;;;5056467;28;20017;-46
2021/09/04 06:32:43;;;;;;;2.78;1.70;;;;;;;;;;5057138;28;20358;-47
2021/09/04 06:35:11;;;;;;;5.20;1.98;;;;;;;;;;5056702;28;20033;-49
2021/09/04 06:37:38;;;;;;;4.97;2.33;;;;;;;;;;5056887;28;20399;-46
2021/09/04 06:40:06;;;;;;;4.07;2.00;;;;;;;;;;5056633;28;20490;-52
2021/09/04 06:42:33;;;;;;;5.05;2.17;;;;;;;;;;5057076;28;20021;-48
2021/09/04 06:45:00;;;;;;;3.38;2.05;;;;;;;;;;5056058;28;20029;-48
2021/09/04 06:47:27;;;;;;;3.90;2.05;;;;;;;;;;5057497;28;20021;-47
2021/09/04 06:49:54;;;;;;;3.53;2.00;;;;;;;;;;5054182;28;20041;-46
2021/09/04 06:52:21;;;;;;;9.32;2.10;;;;;;;;;;5053146;28;20079;-48
2021/09/04 06:54:48;;;;;;;3.38;1.80;;;;;;;;;;5052671;28;20415;-45
2021/09/04 06:57:15;;;;;;;4.72;2.10;;;;;;;;;;5053190;28;20032;-49
2021/09/04 06:59:42;;;;;;;4.90;2.00;;;;;;;;;;5053398;28;20028;-49
2021/09/04 07:02:09;;;;;;;3.33;1.98;;;;;;;;;;5052802;28;20041;-45
2021/09/04 07:04:36;;;;;;;3.35;1.85;;;;;;;;;;5053849;28;20021;-46
2021/09/04 07:07:06;;;;;;;3.70;1.85;;;;;;;;;;5053213;28;20021;-48
2021/09/04 07:09:33;;;;;;;2.97;1.80;;;;;;;;;;5053639;28;20087;-47
2021/09/04 07:12:01;;;;;;;5.50;2.13;;;;;;;;;;5052872;28;20025;-47
2021/09/04 07:14:28;;;;;;;3.63;1.88;;;;;;;;;;5053529;28;20380;-46
2021/09/04 07:16:55;;;;;;;2.88;1.80;;;;;;;;;;5053443;28;20029;-49
2021/09/04 07:19:22;;;;;;;3.55;1.55;;;;;;;;;;5052928;28;20041;-46
2021/09/04 07:21:49;;;;;;;2.35;1.73;;;;;;;;;;5053318;28;20025;-47
2021/09/04 07:24:16;;;;;;;4.05;1.77;;;;;;;;;;5052906;28;20468;-46
2021/09/04 07:26:43;;;;;;;4.82;1.90;;;;;;;;;;5053829;28;20131;-45
2021/09/04 07:29:10;;;;;;;2.60;1.88;;;;;;;;;;5052643;28;20017;-49
2021/09/04 07:31:37;;;;;;;3.15;1.85;;;;;;;;;;5051934;28;20703;-45
2021/09/04 07:34:04;;;;;;;3.72;1.90;;;;;;;;;;5052531;28;20029;-46
2021/09/04 07:36:31;;;;;;;3.92;2.05;;;;;;;;;;5053396;28;20025;-53
2021/09/04 07:38:58;;;;;;;3.30;1.80;;;;;;;;;;5050680;28;20035;-50
2021/09/04 07:41:25;;;;;;;2.88;1.67;;;;;;;;;;5052715;28;20579;-47
2021/09/04 07:43:52;;;;;;;3.63;1.65;;;;;;;;;;5052187;28;20021;-45
2021/09/04 07:46:19;;;;;;;3.45;1.98;;;;;;;;;;5052695;28;20047;-44
2021/09/04 07:48:46;;;;;;;3.03;1.67;;;;;;;;;;5052750;28;20112;-46
2021/09/04 07:51:13;;;;;;;2.90;1.80;;;;;;;;;;5052040;28;20025;-45
2021/09/04 07:53:40;;;;;;;4.68;2.22;;;;;;;;;;5052707;28;20028;-46
2021/09/04 07:56:08;;;;;;;3.40;1.77;;;;;;;;;;5051192;28;20028;-45
2021/09/04 07:58:36;;;;;;;3.13;1.80;;;;;;;;;;5052790;28;20058;-44
2021/09/04 08:01:04;;;;;;;3.33;2.08;;;;;;;;;;5050978;28;20061;-44
2021/09/04 08:03:31;;;;;;;3.10;1.63;;;;;;;;;;5052253;28;20048;-47
2021/09/04 08:05:58;;;;;;;2.58;1.70;;;;;;;;;;5052359;28;20013;-46
2021/09/04 08:08:25;;;;;;;2.10;1.40;;;;;;;;;;5052450;28;20048;-44
2021/09/04 08:10:52;;;;;;;2.05;1.60;;;;;;;;;;5051989;28;20551;-45
2021/09/04 08:13:19;;;;;;;2.38;1.70;;;;;;;;;;5052125;28;20025;-46
2021/09/04 08:15:48;;;;;;;2.92;1.75;;;;;;;;;;5052510;28;20418;-45
2021/09/04 08:18:15;;;;;;;1.98;1.38;;;;;;;;;;5051657;28;20104;-46
2021/09/04 08:20:43;;;;;;;2.72;1.63;;;;;;;;;;5052534;28;20464;-48
2021/09/04 08:23:10;;;;;;;3.95;1.33;;;;;;;;;;5051504;28;20017;-47
2021/09/04 08:25:37;;;;;;;1.88;1.55;;;;;;;;;;5052134;28;20017;-48
2021/09/04 08:28:10;;;;;;;2.22;1.35;;;;;;;;;;5051558;28;20025;-48
2021/09/04 08:30:39;;;;;;;2.63;1.50;;;;;;;;;;5052454;28;20079;-44
2021/09/04 08:33:06;;;;;;;2.08;1.35;;;;;;;;;;5051398;28;20021;-51
2021/09/04 08:35:33;;;;;;;3.85;1.40;;;;;;;;;;5052089;28;20024;-48
2021/09/04 08:38:06;;;;;;;2.75;1.58;;;;;;;;;;5051644;28;20508;-45
2021/09/04 08:40:33;;;;;;;2.75;1.40;;;;;;;;;;5051670;28;20052;-47
2021/09/04 08:43:01;;;;;;;2.45;1.45;;;;;;;;;;5051076;28;20029;-52
2021/09/04 08:45:28;;;;;;;3.28;1.70;;;;;;;;;;5051929;28;20475;-45
2021/09/04 08:47:55;;;;;;;2.33;1.50;;;;;;;;;;5051417;28;20075;-47
2021/09/04 08:50:22;;;;;;;2.72;1.35;;;;;;;;;;5051027;28;20021;-46
2021/09/04 08:52:49;;;;;;;2.13;1.50;;;;;;;;;;5052098;28;20028;-52
2021/09/04 08:55:16;;;;;;;3.17;1.83;;;;;;;;;;5050836;28;20083;-48
2021/09/04 08:57:43;;;;;;;2.65;1.80;;;;;;;;;;5051198;28;20033;-46
2021/09/04 09:00:10;;;;;;;2.30;1.48;;;;;;;;;;5051230;28;20555;-46
2021/09/04 09:02:38;;;;;;;2.92;1.63;;;;;;;;;;5051595;28;20049;-47
2021/09/04 09:05:06;;;;;;;3.22;1.77;;;;;;;;;;5050934;28;20021;-56
2021/09/04 09:07:39;;;;;;;2.83;1.70;;;;;;;;;;5051413;28;20033;-46
2021/09/04 09:10:06;;;;;;;2.67;1.45;;;;;;;;;;5038165;28;20033;-48
2021/09/04 09:12:33;;;;;;;2.45;1.50;;;;;;;;;;5051203;28;20538;-47
2021/09/04 09:15:00;;;;;;;2.83;1.48;;;;;;;;;;5050475;28;20024;-46
2021/09/04 09:17:27;;;;;;;3.00;1.80;;;;;;;;;;5044895;28;20030;-47
2021/09/04 09:20:07;;;;;;;2.85;1.58;;;;;;;;;;5027834;28;20029;-48
2021/09/04 09:22:43;;;;;;;2.10;1.35;;;;;;;;;;5040100;28;20694;-46
2021/09/04 09:25:14;;;;;;;3.45;1.80;;;;;;;;;;5051149;28;20112;-47
2021/09/04 09:27:57;;;;;;;3.58;1.98;;;;;;;;;;5049876;28;20016;-48
2021/09/04 09:30:38;;;;;;;3.83;1.90;;;;;;;;;;5051212;28;20399;-46
2021/09/04 09:33:06;;;;;;;2.38;1.70;;;;;;;;;;5050979;28;20037;-45
2021/09/04 09:35:42;;;;;;;3.65;1.80;;;;;;;;;;5050570;28;20020;-46
2021/09/04 09:38:11;;;;;;;3.78;1.92;;;;;;;;;;5050916;28;20033;-52
2021/09/04 09:40:39;;;;;;;3.10;1.55;;;;;;;;;;5049946;28;20392;-48
2021/09/04 09:43:16;;;;;;;4.28;1.90;;;;;;;;;;5050850;28;20031;-46
2021/09/04 09:45:47;;;;;;;2.92;1.80;;;;;;;;;;5049544;28;20087;-47
2021/09/04 09:48:17;;;;;;;3.15;1.95;;;;;;;;;;5050353;28;20025;-47
2021/09/04 09:50:44;;;;;;;3.45;1.95;;;;;;;;;;5050848;28;20476;-49
2021/09/04 09:53:11;;;;;;;4.10;1.83;;;;;;;;;;5049404;28;20444;-47
2021/09/04 09:55:41;;;;;;;4.50;2.40;;;;;;;;;;5050598;28;20477;-48
2021/09/04 09:58:08;;;;;;;3.20;1.90;;;;;;;;;;5049932;28;20431;-46
2021/09/04 10:00:35;;;;;;;3.15;2.08;;;;;;;;;;5051192;28;20026;-49
2021/09/04 10:03:02;;;;;;;4.07;2.10;;;;;;;;;;5050179;28;20057;-47
2021/09/04 10:05:31;;;;;;;3.35;1.90;;;;;;;;;;5050618;28;20056;-47
2021/09/04 10:07:58;;;;;;;3.22;2.28;;;;;;;;;;5050459;28;20466;-49
2021/09/04 10:10:27;;;;;;;6.63;2.47;;;;;;;;;;5050666;28;20066;-47
2021/09/04 10:12:54;;;;;;;2.78;1.85;;;;;;;;;;5050457;28;20028;-46
2021/09/04 10:15:23;;;;;;;3.67;2.25;;;;;;;;;;5054252;28;20090;-46
2021/09/04 10:17:51;;;;;;;3.55;2.00;;;;;;;;;;5050731;28;20021;-46
2021/09/04 10:20:19;;;;;;;3.47;1.92;;;;;;;;;;5049867;28;20056;-50
2021/09/04 10:22:46;;;;;;;3.45;2.08;;;;;;;;;;5049670;28;20384;-46
2021/09/04 10:25:15;;;;;;;5.18;2.10;;;;;;;;;;5052412;28;20021;-49
2021/09/04 10:27:43;;;;;;;4.05;2.00;;;;;;;;;;5054423;28;20033;-46
2021/09/04 10:30:24;;;;;;;3.55;2.10;;;;;;;;;;5053869;28;20503;-50
2021/09/04 10:32:58;;;;;;;4.43;2.45;;;;;;;;;;5054509;28;20472;-50
2021/09/04 10:35:54;;;;;;;3.63;1.80;;;;;;;;;;5053477;28;20025;-47
2021/09/04 10:38:21;;;;;;;3.45;1.70;;;;;;;;;;5045515;28;20045;-45
2021/09/04 10:40:49;;;;;;;5.25;1.95;;;;;;;;;;5053709;28;20429;-47
2021/09/04 10:43:17;;;;;;;4.18;2.20;;;;;;;;;;5054128;28;20025;-45
2021/09/04 10:45:53;;;;;;;6.72;1.85;;;;;;;;;;5053277;28;20056;-46
2021/09/04 10:48:21;;;;;;;3.25;1.65;;;;;;;;;;5054288;28;20024;-46
2021/09/04 10:51:08;;;;;;;3.58;1.73;;;;;;;;;;5053324;28;20025;-48
2021/09/04 10:53:47;;;;;;;4.30;2.22;;;;;;;;;;5053969;28;20041;-50
2021/09/04 10:56:32;;;;;;;5.97;2.25;;;;;;;;;;5053402;28;20035;-47
2021/09/04 10:58:59;;;;;;;4.00;1.95;;;;;;;;;;5053608;28;20082;-47
2021/09/04 11:01:28;;;;;;;4.57;2.05;;;;;;;;;;5053070;28;20388;-49
2021/09/04 11:03:56;;;;;;;3.78;1.98;;;;;;;;;;5053882;28;20033;-50
2021/09/04 11:06:24;;;;;;;2.42;1.40;;;;;;;;;;5053263;28;20017;-48
2021/09/04 11:08:51;;;;;;;2.28;1.60;;;;;;;;;;5053760;28;20021;-46
2021/09/04 11:11:21;;;;;;;1.67;1.40;;;;;;;;;;5053579;28;20029;-46
2021/09/04 11:13:56;;;;;;;4.05;1.80;;;;;;;;;;5053116;28;20468;-49
2021/09/04 11:16:38;;;;;;;3.08;1.85;;;;;;;;;;5053149;28;20033;-46
2021/09/04 11:19:08;;;;;;;2.40;1.65;;;;;;;;;;5053120;28;20465;-51
2021/09/04 11:21:55;;;;;;;3.28;1.85;;;;;;;;;;5053474;28;20747;-50
2021/09/04 11:24:22;;;;;;;2.65;1.40;;;;;;;;;;5052574;28;20543;-49
2021/09/04 11:26:50;;;;;;;3.38;1.83;;;;;;;;;;5053489;28;20377;-46
2021/09/04 11:29:18;;;;;;;4.80;2.03;;;;;;;;;;5052823;28;20477;-48
2021/09/04 11:31:54;;;;;;;3.10;1.63;;;;;;;;;;5053220;28;20028;-50
2021/09/04 11:34:41;;;;;;;3.17;1.83;;;;;;;;;;5052415;28;20025;-49
2021/09/04 11:37:15;;;;;;;3.50;1.65;;;;;;;;;;5045637;28;20485;-45
2021/09/04 11:39:42;;;;;;;2.38;1.52;;;;;;;;;;5052859;28;20031;-46
2021/09/04 11:42:18;;;;;;;3.45;1.80;;;;;;;;;;5052993;28;20025;-45
2021/09/04 11:44:49;;;;;;;3.20;1.77;;;;;;;;;;5052593;28;20017;-48
2021/09/04 11:47:16;;;;;;;3.65;1.83;;;;;;;;;;5052228;28;20910;-44
2021/09/04 11:49:44;;;;;;;3.88;1.98;;;;;;;;;;5052488;28;20038;-46
2021/09/04 11:52:21;;;;;;;3.55;1.98;;;;;;;;;;5052697;28;20032;-46
2021/09/04 11:54:48;;;;;;;2.50;1.95;;;;;;;;;;5052591;28;20075;-46
2021/09/04 11:57:25;;;;;;;2.72;1.80;;;;;;;;;;5052150;28;20037;-45
2021/09/04 12:00:00;;;;;;;3.25;1.70;;;;;;;;;;5052739;28;20063;-45
2021/09/04 12:02:27;;;;;;;2.85;1.90;;;;;;;;;;5052274;28;20044;-46
2021/09/04 12:04:54;;;;;;;2.90;1.73;;;;;;;;;;5052710;28;20032;-46
2021/09/04 12:07:25;;;;;;;3.20;1.70;;;;;;;;;;5051401;28;20082;-47
2021/09/04 12:09:53;;;;;;;3.15;1.77;;;;;;;;;;5052723;28;20028;-46
2021/09/04 12:12:20;;;;;;;4.50;2.05;;;;;;;;;;5051988;28;20021;-45
2021/09/04 12:14:47;;;;;;;3.10;1.77;;;;;;;;;;5052357;28;20128;-45
2021/09/04 12:17:17;;;;;;;3.45;1.90;;;;;;;;;;5048878;28;20614;-44
2021/09/04 12:19:44;;;;;;;5.82;2.03;;;;;;;;;;5052057;28;20134;-43
2021/09/04 12:22:11;;;;;;;3.15;1.80;;;;;;;;;;5051311;28;20488;-44
2021/09/04 12:24:38;;;;;;;3.13;1.85;;;;;;;;;;5049034;28;20158;-45
2021/09/04 12:27:06;;;;;;;3.50;2.30;;;;;;;;;;5050724;28;20074;-44
2021/09/04 12:29:34;;;;;;;3.00;1.60;;;;;;;;;;5049635;28;20029;-52
2021/09/04 12:32:07;;;;;;;4.30;2.20;;;;;;;;;;5050111;28;20487;-56
2021/09/04 12:34:34;;;;;;;4.18;2.15;;;;;;;;;;5048682;28;20032;-51
2021/09/04 12:37:02;;;;;;;7.90;1.92;;;;;;;;;;5051076;28;20040;-44
2021/09/04 12:39:30;;;;;;;2.50;1.67;;;;;;;;;;5051195;28;20032;-44
2021/09/04 12:42:00;;;;;;;4.50;2.05;;;;;;;;;;5051106;28;20167;-45
2021/09/04 12:44:36;;;;;;;4.13;1.92;;;;;;;;;;5049417;28;20107;-45
2021/09/04 12:47:04;;;;;;;3.58;2.20;;;;;;;;;;5049516;28;20028;-44
2021/09/04 12:49:38;;;;;;;3.75;2.20;;;;;;;;;;5035666;28;20029;-47
2021/09/04 12:52:05;;;;;;;3.85;1.80;;;;;;;;;;5050594;28;20036;-49
2021/09/04 12:54:37;;;;;;;3.17;1.92;;;;;;;;;;5050164;28;20017;-46
2021/09/04 12:57:05;;;;;;;3.47;1.92;;;;;;;;;;5050024;28;20033;-46
2021/09/04 12:59:41;;;;;;;4.72;1.88;;;;;;;;;;5049206;28;20021;-48
2021/09/04 13:02:09;;;;;;;2.92;1.88;;;;;;;;;;5050790;28;20060;-47
2021/09/04 13:04:36;;;;;;;3.22;1.77;;;;;;;;;;5050776;28;20465;-45
2021/09/04 13:07:03;;;;;;;2.50;1.70;;;;;;;;;;5037003;28;20025;-45
2021/09/04 13:09:30;;;;;;;3.40;2.10;;;;;;;;;;5036853;28;20052;-45
2021/09/04 13:11:57;;;;;;;2.97;2.08;;;;;;;;;;5035119;28;20029;-46
2021/09/04 13:14:24;;;;;;;8.30;2.25;;;;;;;;;;5045682;28;20033;-48
2021/09/04 13:16:51;;;;;;;3.75;1.70;;;;;;;;;;5045980;28;20039;-53
2021/09/04 13:19:18;;;;;;;4.53;1.65;;;;;;;;;;5040720;28;20026;-53
2021/09/04 13:21:45;;;;;;;3.47;2.00;;;;;;;;;;5046658;28;20029;-51
2021/09/04 13:24:13;;;;;;;5.05;1.88;;;;;;;;;;5051223;28;20052;-51
2021/09/04 13:26:40;;;;;;;7.88;1.85;;;;;;;;;;5050572;28;20067;-46
2021/09/04 13:29:07;;;;;;;3.55;2.10;;;;;;;;;;5050505;28;20056;-46
2021/09/04 13:31:34;;;;;;;3.22;1.98;;;;;;;;;;5050517;28;20017;-46
2021/09/04 13:34:01;;;;;;;7.38;1.95;;;;;;;;;;5050713;28;20412;-48
2021/09/04 13:36:28;;;;;;;4.20;2.03;;;;;;;;;;5050317;28;20060;-47
2021/09/04 13:38:55;;;;;;;3.33;1.67;;;;;;;;;;5050739;28;20464;-49
2021/09/04 13:41:22;;;;;;;5.28;2.08;;;;;;;;;;5050136;28;20078;-50
2021/09/04 13:43:49;;;;;;;4.22;1.90;;;;;;;;;;5050941;28;20414;-51
2021/09/04 13:46:16;;;;;;;4.82;2.00;;;;;;;;;;5050446;28;20084;-50
2021/09/04 13:48:43;;;;;;;4.15;1.80;;;;;;;;;;5050199;28;20075;-47
2021/09/04 13:51:10;;;;;;;4.82;1.77;;;;;;;;;;5038823;28;20030;-48
2021/09/04 13:53:37;;;;;;;3.75;1.80;;;;;;;;;;5044556;28;20402;-48
2021/09/04 13:56:04;;;;;;;3.65;1.45;;;;;;;;;;5049801;28;20107;-49
2021/09/04 13:58:31;;;;;;;3.83;1.60;;;;;;;;;;5051414;28;20483;-49
2021/09/04 14:00:58;;;;;;;3.40;1.75;;;;;;;;;;5047407;28;20052;-50
2021/09/04 14:03:25;;;;;;;4.53;1.42;;;;;;;;;;5054249;28;20036;-47
2021/09/04 14:05:52;;;;;;;4.57;2.00;;;;;;;;;;5052635;28;20024;-49
2021/09/04 14:08:19;;;;;;;8.68;2.33;;;;;;;;;;5052933;28;20028;-50
2021/09/04 14:10:46;;;;;;;6.82;2.10;;;;;;;;;;5049384;28;20017;-55
2021/09/04 14:13:14;;;;;;;4.43;1.98;;;;;;;;;;5055070;28;20429;-53
2021/09/04 14:15:41;;;;;;;3.10;1.88;;;;;;;;;;5042291;28;20039;-52
2021/09/04 14:18:08;;;;;;;4.93;1.88;;;;;;;;;;5052360;28;20029;-55
2021/09/04 14:20:35;;;;;;;3.97;2.03;;;;;;;;;;5053507;28;20025;-49
2021/09/04 14:23:02;;;;;;;5.15;2.13;;;;;;;;;;5043517;28;20037;-51
2021/09/04 14:25:29;;;;;;;7.32;1.90;;;;;;;;;;5054100;28;20033;-58
2021/09/04 14:27:56;;;;;;;8.48;2.25;;;;;;;;;;5054483;28;20543;-56
2021/09/04 14:30:23;;;;;;;7.75;2.10;;;;;;;;;;5054403;28;20072;-47
2021/09/04 14:32:50;;;;;;;5.25;1.95;;;;;;;;;;5054192;28;20021;-52
2021/09/04 14:35:17;;;;;;;5.95;1.70;;;;;;;;;;5053993;28;20021;-47
2021/09/04 14:37:44;;;;;;;4.70;1.95;;;;;;;;;;5053629;28;20787;-53
2021/09/04 14:40:11;;;;;;;4.43;1.70;;;;;;;;;;5054285;28;20025;-53
2021/09/04 14:42:41;;;;;;;8.60;2.15;;;;;;;;;;5053825;28;20079;-50
2021/09/04 14:45:08;;;;;;;4.82;1.90;;;;;;;;;;5052928;28;20033;-47
2021/09/04 14:47:35;;;;;;;5.40;1.90;;;;;;;;;;5053494;28;20723;-52